sensor_id;sensor_type;location;lat;lon;timestamp;temperature;humidity
796;DHT22;381;48.770;9.188;2022-09-27T00:02:37;12.20;99.90
796;DHT22;381;48.770;9.188;2022-09-27T00:07:40;12.20;99.90
796;DHT22;381;48.770;9.188;2022-09-27T00:12:42;12.20;99.90
796;DHT22;381;48.770;9.188;2022-09-27T00:17:46;12.20;99.90
796;DHT22;381;48.770;9.188;2022-09-27T00:22:51;12.20;99.90
796;DHT22;381;48.770;9.188;2022-09-27T00:27:53;12.20;99.90
796;DHT22;381;48.770;9.188;2022-09-27T00:32:57;12.30;99.90
796;DHT22;381;48.770;9.188;2022-09-27T00:37:59;12.30;99.90
796;DHT22;381;48.770;9.188;2022-09-27T00:43:01;12.30;99.90
796;DHT22;381;48.770;9.188;2022-09-27T00:48:05;12.20;99.90
796;DHT22;381;48.770;9.188;2022-09-27T00:53:11;12.20;99.90
796;DHT22;381;48.770;9.188;2022-09-27T00:58:17;12.20;99.90
796;DHT22;381;48.770;9.188;2022-09-27T01:03:27;12.20;99.90
796;DHT22;381;48.770;9.188;2022-09-27T01:08:33;12.20;99.90
796;DHT22;381;48.770;9.188;2022-09-27T01:13:40;12.20;99.90
796;DHT22;381;48.770;9.188;2022-09-27T01:18:58;12.30;99.90
796;DHT22;381;48.770;9.188;2022-09-27T01:24:20;12.30;99.90
796;DHT22;381;48.770;9.188;2022-09-27T01:29:29;12.40;99.90
796;DHT22;381;48.770;9.188;2022-09-27T01:34:42;12.50;99.90
796;DHT22;381;48.770;9.188;2022-09-27T01:39:49;12.50;99.90
796;DHT22;381;48.770;9.188;2022-09-27T01:45:11;12.60;99.90
796;DHT22;381;48.770;9.188;2022-09-27T01:50:29;12.70;99.90
796;DHT22;381;48.770;9.188;2022-09-27T01:55:36;12.70;99.90
796;DHT22;381;48.770;9.188;2022-09-27T02:01:12;12.80;99.90
796;DHT22;381;48.770;9.188;2022-09-27T02:06:19;12.80;99.90
796;DHT22;381;48.770;9.188;2022-09-27T02:11:45;12.90;99.90
796;DHT22;381;48.770;9.188;2022-09-27T02:16:52;13.00;99.90
796;DHT22;381;48.770;9.188;2022-09-27T02:22:11;13.00;99.90
796;DHT22;381;48.770;9.188;2022-09-27T02:27:20;13.10;99.90
796;DHT22;381;48.770;9.188;2022-09-27T02:32:24;13.00;99.90
796;DHT22;381;48.770;9.188;2022-09-27T02:37:28;13.00;99.90
796;DHT22;381;48.770;9.188;2022-09-27T02:42:31;12.90;99.90
796;DHT22;381;48.770;9.188;2022-09-27T02:47:47;12.70;99.90
796;DHT22;381;48.770;9.188;2022-09-27T02:52:58;12.60;99.90
796;DHT22;381;48.770;9.188;2022-09-27T02:58:20;12.50;99.90
796;DHT22;381;48.770;9.188;2022-09-27T03:03:53;12.40;99.90
796;DHT22;381;48.770;9.188;2022-09-27T03:09:01;12.30;99.90
796;DHT22;381;48.770;9.188;2022-09-27T03:14:03;12.20;99.90
796;DHT22;381;48.770;9.188;2022-09-27T03:19:05;12.10;99.90
796;DHT22;381;48.770;9.188;2022-09-27T03:24:29;12.10;99.90
796;DHT22;381;48.770;9.188;2022-09-27T03:29:31;12.10;99.90
796;DHT22;381;48.770;9.188;2022-09-27T03:34:40;12.10;99.90
796;DHT22;381;48.770;9.188;2022-09-27T03:39:43;12.00;99.90
796;DHT22;381;48.770;9.188;2022-09-27T03:44:45;12.00;99.90
796;DHT22;381;48.770;9.188;2022-09-27T03:49:48;12.00;99.90
796;DHT22;381;48.770;9.188;2022-09-27T03:54:52;12.00;99.90
796;DHT22;381;48.770;9.188;2022-09-27T03:59:54;12.00;99.90
796;DHT22;381;48.770;9.188;2022-09-27T04:05:17;12.00;99.90
796;DHT22;381;48.770;9.188;2022-09-27T04:10:21;12.10;99.90
796;DHT22;381;48.770;9.188;2022-09-27T04:15:25;12.10;99.90
796;DHT22;381;48.770;9.188;2022-09-27T04:20:45;12.20;99.90
796;DHT22;381;48.770;9.188;2022-09-27T04:25:50;12.20;99.90
796;DHT22;381;48.770;9.188;2022-09-27T04:31:02;12.20;99.90
796;DHT22;381;48.770;9.188;2022-09-27T04:36:23;12.30;99.90
796;DHT22;381;48.770;9.188;2022-09-27T04:41:53;12.40;99.90
796;DHT22;381;48.770;9.188;2022-09-27T04:46:57;12.40;99.90
796;DHT22;381;48.770;9.188;2022-09-27T04:51:59;12.40;99.90
796;DHT22;381;48.770;9.188;2022-09-27T04:57:03;12.40;99.90
796;DHT22;381;48.770;9.188;2022-09-27T05:02:05;12.40;99.90
796;DHT22;381;48.770;9.188;2022-09-27T05:07:23;12.50;99.90
796;DHT22;381;48.770;9.188;2022-09-27T05:12:32;12.60;99.90
796;DHT22;381;48.770;9.188;2022-09-27T05:17:36;12.60;99.90
796;DHT22;381;48.770;9.188;2022-09-27T05:23:02;12.60;99.90
796;DHT22;381;48.770;9.188;2022-09-27T05:28:06;12.70;99.90
796;DHT22;381;48.770;9.188;2022-09-27T05:33:09;12.70;99.90
796;DHT22;381;48.770;9.188;2022-09-27T05:38:17;12.70;99.90
796;DHT22;381;48.770;9.188;2022-09-27T05:43:24;12.70;99.90
796;DHT22;381;48.770;9.188;2022-09-27T05:48:29;12.70;99.90
796;DHT22;381;48.770;9.188;2022-09-27T05:53:39;12.70;99.90
796;DHT22;381;48.770;9.188;2022-09-27T05:58:50;12.70;99.90
796;DHT22;381;48.770;9.188;2022-09-27T06:03:53;12.70;99.90
796;DHT22;381;48.770;9.188;2022-09-27T06:09:25;12.70;99.90
796;DHT22;381;48.770;9.188;2022-09-27T06:14:33;12.70;99.90
796;DHT22;381;48.770;9.188;2022-09-27T06:19:41;12.70;99.90
796;DHT22;381;48.770;9.188;2022-09-27T06:24:44;12.70;99.90
796;DHT22;381;48.770;9.188;2022-09-27T06:29:56;12.60;99.90
796;DHT22;381;48.770;9.188;2022-09-27T06:35:11;12.70;99.90
796;DHT22;381;48.770;9.188;2022-09-27T06:40:14;12.70;99.90
796;DHT22;381;48.770;9.188;2022-09-27T06:45:44;12.70;99.90
796;DHT22;381;48.770;9.188;2022-09-27T06:51:15;12.90;99.90
796;DHT22;381;48.770;9.188;2022-09-27T06:56:17;13.00;99.90
796;DHT22;381;48.770;9.188;2022-09-27T07:01:28;13.00;99.90
796;DHT22;381;48.770;9.188;2022-09-27T07:06:56;13.10;99.90
796;DHT22;381;48.770;9.188;2022-09-27T07:12:02;13.20;99.90
796;DHT22;381;48.770;9.188;2022-09-27T07:17:07;13.20;99.90
796;DHT22;381;48.770;9.188;2022-09-27T07:22:15;13.30;99.90
796;DHT22;381;48.770;9.188;2022-09-27T07:27:22;13.40;99.90
796;DHT22;381;48.770;9.188;2022-09-27T07:32:26;13.50;99.90
796;DHT22;381;48.770;9.188;2022-09-27T07:37:30;13.70;99.90
796;DHT22;381;48.770;9.188;2022-09-27T07:42:34;13.70;99.90
796;DHT22;381;48.770;9.188;2022-09-27T07:47:39;13.70;99.90
796;DHT22;381;48.770;9.188;2022-09-27T07:52:55;13.70;99.90
796;DHT22;381;48.770;9.188;2022-09-27T07:58:21;13.70;99.90
796;DHT22;381;48.770;9.188;2022-09-27T08:03:27;13.80;99.90
796;DHT22;381;48.770;9.188;2022-09-27T08:08:29;13.80;99.90
796;DHT22;381;48.770;9.188;2022-09-27T08:13:33;13.90;99.90
796;DHT22;381;48.770;9.188;2022-09-27T08:18:37;14.10;99.90
796;DHT22;381;48.770;9.188;2022-09-27T08:24:00;14.10;99.90
796;DHT22;381;48.770;9.188;2022-09-27T08:29:23;14.00;99.90
796;DHT22;381;48.770;9.188;2022-09-27T08:34:28;13.90;99.90
796;DHT22;381;48.770;9.188;2022-09-27T08:39:30;13.90;99.90
796;DHT22;381;48.770;9.188;2022-09-27T08:44:46;13.90;99.90
796;DHT22;381;48.770;9.188;2022-09-27T08:49:56;13.90;99.90
796;DHT22;381;48.770;9.188;2022-09-27T08:55:02;14.10;99.90
796;DHT22;381;48.770;9.188;2022-09-27T09:00:07;14.20;99.90
796;DHT22;381;48.770;9.188;2022-09-27T09:05:18;14.30;99.90
796;DHT22;381;48.770;9.188;2022-09-27T09:10:35;14.30;99.90
796;DHT22;381;48.770;9.188;2022-09-27T09:16:05;14.20;99.90
796;DHT22;381;48.770;9.188;2022-09-27T09:21:26;14.30;99.90
796;DHT22;381;48.770;9.188;2022-09-27T09:26:38;14.50;99.90
796;DHT22;381;48.770;9.188;2022-09-27T09:31:48;14.70;99.90
796;DHT22;381;48.770;9.188;2022-09-27T09:36:57;14.90;99.90
796;DHT22;381;48.770;9.188;2022-09-27T09:42:10;15.00;99.90
796;DHT22;381;48.770;9.188;2022-09-27T09:47:24;15.10;99.90
796;DHT22;381;48.770;9.188;2022-09-27T09:52:38;15.00;99.90
796;DHT22;381;48.770;9.188;2022-09-27T09:57:48;15.10;99.90
796;DHT22;381;48.770;9.188;2022-09-27T10:02:59;15.20;99.90
796;DHT22;381;48.770;9.188;2022-09-27T10:08:05;15.40;99.90
796;DHT22;381;48.770;9.188;2022-09-27T10:13:13;15.50;99.20
796;DHT22;381;48.770;9.188;2022-09-27T10:18:18;15.50;99.20
796;DHT22;381;48.770;9.188;2022-09-27T10:23:22;15.60;98.60
796;DHT22;381;48.770;9.188;2022-09-27T10:28:45;15.70;98.70
796;DHT22;381;48.770;9.188;2022-09-27T10:33:54;15.70;99.00
796;DHT22;381;48.770;9.188;2022-09-27T10:39:03;15.60;98.90
796;DHT22;381;48.770;9.188;2022-09-27T10:44:20;15.40;98.60
796;DHT22;381;48.770;9.188;2022-09-27T10:49:45;15.40;99.50
796;DHT22;381;48.770;9.188;2022-09-27T10:55:20;15.50;98.80
796;DHT22;381;48.770;9.188;2022-09-27T11:00:29;15.70;97.40
796;DHT22;381;48.770;9.188;2022-09-27T11:05:35;15.70;98.20
796;DHT22;381;48.770;9.188;2022-09-27T11:10:39;15.80;98.90
796;DHT22;381;48.770;9.188;2022-09-27T11:15:51;15.80;98.80
796;DHT22;381;48.770;9.188;2022-09-27T11:21:03;15.90;99.30
796;DHT22;381;48.770;9.188;2022-09-27T11:26:21;16.00;98.00
796;DHT22;381;48.770;9.188;2022-09-27T11:36:58;16.10;96.80
796;DHT22;381;48.770;9.188;2022-09-27T11:42:22;16.10;96.40
796;DHT22;381;48.770;9.188;2022-09-27T11:47:36;16.00;96.50
796;DHT22;381;48.770;9.188;2022-09-27T11:52:54;16.00;97.00
796;DHT22;381;48.770;9.188;2022-09-27T11:58:05;16.00;95.40
796;DHT22;381;48.770;9.188;2022-09-27T12:03:36;16.00;96.30
796;DHT22;381;48.770;9.188;2022-09-27T12:08:56;15.90;96.30
796;DHT22;381;48.770;9.188;2022-09-27T12:14:09;15.80;95.80
796;DHT22;381;48.770;9.188;2022-09-27T12:19:17;15.60;95.30
796;DHT22;381;48.770;9.188;2022-09-27T12:24:31;15.40;96.50
796;DHT22;381;48.770;9.188;2022-09-27T12:29:54;15.00;97.90
796;DHT22;381;48.770;9.188;2022-09-27T12:35:02;14.60;99.90
796;DHT22;381;48.770;9.188;2022-09-27T12:40:14;14.20;99.90
796;DHT22;381;48.770;9.188;2022-09-27T12:45:26;13.90;99.90
796;DHT22;381;48.770;9.188;2022-09-27T12:50:35;13.80;99.90
796;DHT22;381;48.770;9.188;2022-09-27T13:01:23;13.80;99.90
796;DHT22;381;48.770;9.188;2022-09-27T13:06:50;13.90;99.90
796;DHT22;381;48.770;9.188;2022-09-27T13:12:01;14.20;99.90
796;DHT22;381;48.770;9.188;2022-09-27T13:17:31;14.40;99.90
796;DHT22;381;48.770;9.188;2022-09-27T13:22:39;14.50;99.90
796;DHT22;381;48.770;9.188;2022-09-27T13:27:55;14.50;99.90
796;DHT22;381;48.770;9.188;2022-09-27T13:33:31;14.50;99.90
796;DHT22;381;48.770;9.188;2022-09-27T13:38:37;14.40;99.90
796;DHT22;381;48.770;9.188;2022-09-27T13:43:52;14.30;99.90
796;DHT22;381;48.770;9.188;2022-09-27T13:49:27;14.20;99.90
796;DHT22;381;48.770;9.188;2022-09-27T13:54:54;14.10;99.90
796;DHT22;381;48.770;9.188;2022-09-27T14:00:01;14.00;99.90
796;DHT22;381;48.770;9.188;2022-09-27T14:05:29;14.00;99.90
796;DHT22;381;48.770;9.188;2022-09-27T14:10:33;13.90;99.90
796;DHT22;381;48.770;9.188;2022-09-27T14:15:36;13.80;99.90
796;DHT22;381;48.770;9.188;2022-09-27T14:20:42;13.70;99.90
796;DHT22;381;48.770;9.188;2022-09-27T14:26:26;13.40;99.90
796;DHT22;381;48.770;9.188;2022-09-27T14:31:29;13.10;99.90
796;DHT22;381;48.770;9.188;2022-09-27T14:36:53;12.80;99.90
796;DHT22;381;48.770;9.188;2022-09-27T14:42:26;12.70;99.90
796;DHT22;381;48.770;9.188;2022-09-27T14:47:32;12.70;99.90
796;DHT22;381;48.770;9.188;2022-09-27T14:52:38;12.80;99.90
796;DHT22;381;48.770;9.188;2022-09-27T14:57:45;12.80;99.90
796;DHT22;381;48.770;9.188;2022-09-27T15:02:48;12.70;99.90
796;DHT22;381;48.770;9.188;2022-09-27T15:07:57;12.70;99.90
796;DHT22;381;48.770;9.188;2022-09-27T15:13:02;12.70;99.90
796;DHT22;381;48.770;9.188;2022-09-27T15:23:42;12.60;99.90
796;DHT22;381;48.770;9.188;2022-09-27T15:28:46;12.60;99.90
796;DHT22;381;48.770;9.188;2022-09-27T15:33:52;12.70;99.90
796;DHT22;381;48.770;9.188;2022-09-27T15:39:06;12.80;99.90
796;DHT22;381;48.770;9.188;2022-09-27T15:44:38;12.80;99.90
796;DHT22;381;48.770;9.188;2022-09-27T15:49:44;12.90;99.90
796;DHT22;381;48.770;9.188;2022-09-27T15:54:48;13.00;99.90
796;DHT22;381;48.770;9.188;2022-09-27T15:59:52;12.90;99.90
796;DHT22;381;48.770;9.188;2022-09-27T16:04:54;12.90;99.90
796;DHT22;381;48.770;9.188;2022-09-27T16:09:57;13.00;99.90
796;DHT22;381;48.770;9.188;2022-09-27T16:14:59;13.00;99.90
796;DHT22;381;48.770;9.188;2022-09-27T16:20:02;13.00;99.90
796;DHT22;381;48.770;9.188;2022-09-27T16:25:06;13.00;99.90
796;DHT22;381;48.770;9.188;2022-09-27T16:30:09;13.00;99.90
796;DHT22;381;48.770;9.188;2022-09-27T16:35:13;13.00;99.90
796;DHT22;381;48.770;9.188;2022-09-27T16:40:17;13.00;99.90
796;DHT22;381;48.770;9.188;2022-09-27T16:45:19;12.90;99.90
796;DHT22;381;48.770;9.188;2022-09-27T16:50:21;12.90;99.90
796;DHT22;381;48.770;9.188;2022-09-27T16:55:45;12.90;99.90
796;DHT22;381;48.770;9.188;2022-09-27T17:00:47;12.90;99.90
796;DHT22;381;48.770;9.188;2022-09-27T17:05:49;12.80;99.90
796;DHT22;381;48.770;9.188;2022-09-27T17:10:52;12.80;99.90
796;DHT22;381;48.770;9.188;2022-09-27T17:15:56;12.80;99.90
796;DHT22;381;48.770;9.188;2022-09-27T17:20:59;12.80;99.90
796;DHT22;381;48.770;9.188;2022-09-27T17:26:06;12.80;99.90
796;DHT22;381;48.770;9.188;2022-09-27T17:31:10;12.80;99.90
796;DHT22;381;48.770;9.188;2022-09-27T17:36:16;12.80;99.90
796;DHT22;381;48.770;9.188;2022-09-27T17:41:21;12.80;99.90
796;DHT22;381;48.770;9.188;2022-09-27T17:46:25;12.90;99.90
796;DHT22;381;48.770;9.188;2022-09-27T17:51:28;12.90;99.90
796;DHT22;381;48.770;9.188;2022-09-27T17:56:35;12.90;99.90
796;DHT22;381;48.770;9.188;2022-09-27T18:01:38;12.90;99.90
796;DHT22;381;48.770;9.188;2022-09-27T18:06:42;12.90;99.90
796;DHT22;381;48.770;9.188;2022-09-27T18:11:45;12.90;99.90
796;DHT22;381;48.770;9.188;2022-09-27T18:16:48;12.80;99.90
796;DHT22;381;48.770;9.188;2022-09-27T18:21:50;12.70;99.90
796;DHT22;381;48.770;9.188;2022-09-27T18:26:54;12.60;99.90
796;DHT22;381;48.770;9.188;2022-09-27T18:31:56;12.60;99.90
796;DHT22;381;48.770;9.188;2022-09-27T18:36:59;12.40;99.90
796;DHT22;381;48.770;9.188;2022-09-27T18:42:02;12.30;99.90
796;DHT22;381;48.770;9.188;2022-09-27T18:47:05;12.30;99.90
796;DHT22;381;48.770;9.188;2022-09-27T18:52:07;12.30;99.90
796;DHT22;381;48.770;9.188;2022-09-27T18:57:10;12.30;99.90
796;DHT22;381;48.770;9.188;2022-09-27T19:02:12;12.30;99.90
796;DHT22;381;48.770;9.188;2022-09-27T19:07:14;12.30;99.90
796;DHT22;381;48.770;9.188;2022-09-27T19:12:18;12.20;99.90
796;DHT22;381;48.770;9.188;2022-09-27T19:17:20;12.20;99.90
796;DHT22;381;48.770;9.188;2022-09-27T19:22:22;12.10;99.90
796;DHT22;381;48.770;9.188;2022-09-27T19:27:26;12.00;99.90
796;DHT22;381;48.770;9.188;2022-09-27T19:32:28;12.00;99.90
796;DHT22;381;48.770;9.188;2022-09-27T19:37:30;11.90;99.90
796;DHT22;381;48.770;9.188;2022-09-27T19:42:35;11.90;99.90
796;DHT22;381;48.770;9.188;2022-09-27T19:47:40;11.80;99.90
796;DHT22;381;48.770;9.188;2022-09-27T19:52:42;11.80;99.90
796;DHT22;381;48.770;9.188;2022-09-27T19:57:47;11.80;99.90
796;DHT22;381;48.770;9.188;2022-09-27T20:02:49;11.70;99.90
796;DHT22;381;48.770;9.188;2022-09-27T20:07:51;11.70;99.90
796;DHT22;381;48.770;9.188;2022-09-27T20:12:56;11.60;99.90
796;DHT22;381;48.770;9.188;2022-09-27T20:17:59;11.70;99.90
796;DHT22;381;48.770;9.188;2022-09-27T20:23:01;11.60;99.90
796;DHT22;381;48.770;9.188;2022-09-27T20:28:07;11.60;99.90
796;DHT22;381;48.770;9.188;2022-09-27T20:33:09;11.60;99.90
796;DHT22;381;48.770;9.188;2022-09-27T20:38:29;11.50;99.90
796;DHT22;381;48.770;9.188;2022-09-27T20:43:32;11.50;99.90
796;DHT22;381;48.770;9.188;2022-09-27T20:48:35;11.40;99.90
796;DHT22;381;48.770;9.188;2022-09-27T20:53:38;11.40;99.90
796;DHT22;381;48.770;9.188;2022-09-27T20:58:41;11.40;99.90
796;DHT22;381;48.770;9.188;2022-09-27T21:03:44;11.40;99.90
796;DHT22;381;48.770;9.188;2022-09-27T21:08:46;11.40;99.90
796;DHT22;381;48.770;9.188;2022-09-27T21:13:50;11.30;99.90
796;DHT22;381;48.770;9.188;2022-09-27T21:18:53;11.40;99.90
796;DHT22;381;48.770;9.188;2022-09-27T21:23:57;11.30;99.90
796;DHT22;381;48.770;9.188;2022-09-27T21:29:05;11.30;99.90
796;DHT22;381;48.770;9.188;2022-09-27T21:34:08;11.40;99.90
796;DHT22;381;48.770;9.188;2022-09-27T21:39:10;11.40;99.90
796;DHT22;381;48.770;9.188;2022-09-27T21:44:15;11.50;99.90
796;DHT22;381;48.770;9.188;2022-09-27T21:49:17;11.50;99.90
796;DHT22;381;48.770;9.188;2022-09-27T21:54:19;11.60;99.90
796;DHT22;381;48.770;9.188;2022-09-27T21:59:22;11.60;99.90
796;DHT22;381;48.770;9.188;2022-09-27T22:04:25;11.60;99.90
796;DHT22;381;48.770;9.188;2022-09-27T22:09:27;11.60;99.90
796;DHT22;381;48.770;9.188;2022-09-27T22:14:33;11.50;99.90
796;DHT22;381;48.770;9.188;2022-09-27T22:19:35;11.40;99.90
796;DHT22;381;48.770;9.188;2022-09-27T22:24:37;11.20;99.90
796;DHT22;381;48.770;9.188;2022-09-27T22:29:40;11.10;99.90
796;DHT22;381;48.770;9.188;2022-09-27T22:34:42;11.00;99.90
796;DHT22;381;48.770;9.188;2022-09-27T22:39:47;11.00;99.90
796;DHT22;381;48.770;9.188;2022-09-27T22:44:54;10.90;99.90
796;DHT22;381;48.770;9.188;2022-09-27T22:49:57;11.00;99.90
796;DHT22;381;48.770;9.188;2022-09-27T22:55:07;10.90;99.90
796;DHT22;381;48.770;9.188;2022-09-27T23:00:12;10.90;99.90
796;DHT22;381;48.770;9.188;2022-09-27T23:37:08;11.00;99.90
796;DHT22;381;48.770;9.188;2022-09-27T23:42:10;11.00;99.90
796;DHT22;381;48.770;9.188;2022-09-27T23:47:14;11.10;99.90
796;DHT22;381;48.770;9.188;2022-09-27T23:52:17;11.10;99.90
796;DHT22;381;48.770;9.188;2022-09-27T23:57:19;11.10;99.90
